sensor_id;sensor_type;location;lat;lon;timestamp;temperature;humidity
14119;DHT22;7138;49.246;9.100;2022-12-07T00:01:19;2.20;99.90
14119;DHT22;7138;49.246;9.100;2022-12-07T00:03:47;2.10;99.90
14119;DHT22;7138;49.246;9.100;2022-12-07T00:06:15;2.20;99.90
14119;DHT22;7138;49.246;9.100;2022-12-07T00:08:42;2.20;99.90
14119;DHT22;7138;49.246;9.100;2022-12-07T00:11:11;2.10;99.90
14119;DHT22;7138;49.246;9.100;2022-12-07T00:13:40;2.10;99.90
14119;DHT22;7138;49.246;9.100;2022-12-07T00:16:08;2.10;99.90
14119;DHT22;7138;49.246;9.100;2022-12-07T00:18:36;2.10;99.90
14119;DHT22;7138;49.246;9.100;2022-12-07T00:21:04;2.10;99.90
14119;DHT22;7138;49.246;9.100;2022-12-07T00:23:34;2.10;99.90
14119;DHT22;7138;49.246;9.100;2022-12-07T00:26:04;2.10;99.90
14119;DHT22;7138;49.246;9.100;2022-12-07T00:28:32;2.00;99.90
14119;DHT22;7138;49.246;9.100;2022-12-07T00:31:03;2.00;99.90
14119;DHT22;7138;49.246;9.100;2022-12-07T00:33:31;2.00;99.90
14119;DHT22;7138;49.246;9.100;2022-12-07T00:35:59;2.00;99.90
14119;DHT22;7138;49.246;9.100;2022-12-07T00:38:28;2.00;99.90
14119;DHT22;7138;49.246;9.100;2022-12-07T00:40:56;2.00;99.90
14119;DHT22;7138;49.246;9.100;2022-12-07T00:43:22;2.00;99.90
14119;DHT22;7138;49.246;9.100;2022-12-07T00:45:49;2.10;99.90
14119;DHT22;7138;49.246;9.100;2022-12-07T00:48:15;2.10;99.90
14119;DHT22;7138;49.246;9.100;2022-12-07T00:50:41;2.10;99.90
14119;DHT22;7138;49.246;9.100;2022-12-07T00:53:07;2.10;99.90
14119;DHT22;7138;49.246;9.100;2022-12-07T00:55:33;2.00;99.90
14119;DHT22;7138;49.246;9.100;2022-12-07T00:57:58;2.00;99.90
14119;DHT22;7138;49.246;9.100;2022-12-07T01:00:24;2.00;99.90
14119;DHT22;7138;49.246;9.100;2022-12-07T01:02:52;2.00;99.90
14119;DHT22;7138;49.246;9.100;2022-12-07T01:05:18;2.00;99.90
14119;DHT22;7138;49.246;9.100;2022-12-07T01:07:44;2.00;99.90
14119;DHT22;7138;49.246;9.100;2022-12-07T01:10:10;2.00;99.90
14119;DHT22;7138;49.246;9.100;2022-12-07T01:12:36;2.00;99.90
14119;DHT22;7138;49.246;9.100;2022-12-07T01:15:02;2.00;99.90
14119;DHT22;7138;49.246;9.100;2022-12-07T01:17:28;2.10;99.90
14119;DHT22;7138;49.246;9.100;2022-12-07T01:19:55;2.10;99.90
14119;DHT22;7138;49.246;9.100;2022-12-07T01:22:21;2.10;99.90
14119;DHT22;7138;49.246;9.100;2022-12-07T01:24:47;2.10;99.90
14119;DHT22;7138;49.246;9.100;2022-12-07T01:27:13;2.00;99.90
14119;DHT22;7138;49.246;9.100;2022-12-07T01:29:39;2.10;99.90
14119;DHT22;7138;49.246;9.100;2022-12-07T01:32:05;2.10;99.90
14119;DHT22;7138;49.246;9.100;2022-12-07T01:34:31;2.00;99.90
14119;DHT22;7138;49.246;9.100;2022-12-07T01:36:59;2.00;99.90
14119;DHT22;7138;49.246;9.100;2022-12-07T01:39:24;2.10;99.90
14119;DHT22;7138;49.246;9.100;2022-12-07T01:41:51;2.10;99.90
14119;DHT22;7138;49.246;9.100;2022-12-07T01:44:19;2.10;99.90
14119;DHT22;7138;49.246;9.100;2022-12-07T01:46:48;2.10;99.90
14119;DHT22;7138;49.246;9.100;2022-12-07T01:49:19;2.10;99.90
14119;DHT22;7138;49.246;9.100;2022-12-07T01:52:01;2.10;99.90
14119;DHT22;7138;49.246;9.100;2022-12-07T01:54:36;2.10;99.90
14119;DHT22;7138;49.246;9.100;2022-12-07T01:57:03;2.10;99.90
14119;DHT22;7138;49.246;9.100;2022-12-07T01:59:32;2.20;99.90
14119;DHT22;7138;49.246;9.100;2022-12-07T02:01:59;2.20;99.90
14119;DHT22;7138;49.246;9.100;2022-12-07T02:04:29;2.20;99.90
14119;DHT22;7138;49.246;9.100;2022-12-07T02:06:56;2.20;99.90
14119;DHT22;7138;49.246;9.100;2022-12-07T02:09:24;2.20;99.90
14119;DHT22;7138;49.246;9.100;2022-12-07T02:11:50;2.20;99.90
14119;DHT22;7138;49.246;9.100;2022-12-07T02:14:17;2.20;99.90
14119;DHT22;7138;49.246;9.100;2022-12-07T02:16:59;2.20;99.90
14119;DHT22;7138;49.246;9.100;2022-12-07T02:19:39;2.20;99.90
14119;DHT22;7138;49.246;9.100;2022-12-07T02:25:33;2.30;99.90
14119;DHT22;7138;49.246;9.100;2022-12-07T02:28:17;2.20;99.90
14119;DHT22;7138;49.246;9.100;2022-12-07T02:30:55;2.30;99.90
14119;DHT22;7138;49.246;9.100;2022-12-07T02:33:30;2.30;99.90
14119;DHT22;7138;49.246;9.100;2022-12-07T02:36:05;2.20;99.90
14119;DHT22;7138;49.246;9.100;2022-12-07T02:38:39;2.20;99.90
14119;DHT22;7138;49.246;9.100;2022-12-07T02:41:15;2.20;99.90
14119;DHT22;7138;49.246;9.100;2022-12-07T02:43:47;2.30;99.90
14119;DHT22;7138;49.246;9.100;2022-12-07T02:46:21;2.20;99.90
14119;DHT22;7138;49.246;9.100;2022-12-07T02:48:51;2.20;99.90
14119;DHT22;7138;49.246;9.100;2022-12-07T02:51:19;2.20;99.90
14119;DHT22;7138;49.246;9.100;2022-12-07T02:53:45;2.20;99.90
14119;DHT22;7138;49.246;9.100;2022-12-07T02:56:16;2.20;99.90
14119;DHT22;7138;49.246;9.100;2022-12-07T02:58:58;2.30;99.90
14119;DHT22;7138;49.246;9.100;2022-12-07T03:01:41;2.20;99.90
14119;DHT22;7138;49.246;9.100;2022-12-07T03:04:30;2.30;99.90
14119;DHT22;7138;49.246;9.100;2022-12-07T03:07:08;2.30;99.90
14119;DHT22;7138;49.246;9.100;2022-12-07T03:09:45;2.30;99.90
14119;DHT22;7138;49.246;9.100;2022-12-07T03:12:21;2.20;99.90
14119;DHT22;7138;49.246;9.100;2022-12-07T03:15:00;2.30;99.90
14119;DHT22;7138;49.246;9.100;2022-12-07T03:17:35;2.20;99.90
14119;DHT22;7138;49.246;9.100;2022-12-07T03:20:07;2.30;99.90
14119;DHT22;7138;49.246;9.100;2022-12-07T03:22:38;2.30;99.90
14119;DHT22;7138;49.246;9.100;2022-12-07T03:25:09;2.20;99.90
14119;DHT22;7138;49.246;9.100;2022-12-07T03:27:42;2.20;99.90
14119;DHT22;7138;49.246;9.100;2022-12-07T03:30:16;2.20;99.90
14119;DHT22;7138;49.246;9.100;2022-12-07T03:32:50;2.20;99.90
14119;DHT22;7138;49.246;9.100;2022-12-07T03:35:25;2.20;99.90
14119;DHT22;7138;49.246;9.100;2022-12-07T03:37:56;2.20;99.90
14119;DHT22;7138;49.246;9.100;2022-12-07T03:40:30;2.20;99.90
14119;DHT22;7138;49.246;9.100;2022-12-07T03:43:02;2.20;99.90
14119;DHT22;7138;49.246;9.100;2022-12-07T03:45:35;2.30;99.90
14119;DHT22;7138;49.246;9.100;2022-12-07T03:48:10;2.30;99.90
14119;DHT22;7138;49.246;9.100;2022-12-07T03:50:53;2.30;99.90
14119;DHT22;7138;49.246;9.100;2022-12-07T03:53:28;2.30;99.90
14119;DHT22;7138;49.246;9.100;2022-12-07T03:55:59;2.30;99.90
14119;DHT22;7138;49.246;9.100;2022-12-07T03:58:28;2.30;99.90
14119;DHT22;7138;49.246;9.100;2022-12-07T04:00:55;2.30;99.90
14119;DHT22;7138;49.246;9.100;2022-12-07T04:03:22;2.30;99.90
14119;DHT22;7138;49.246;9.100;2022-12-07T04:05:48;2.20;99.90
14119;DHT22;7138;49.246;9.100;2022-12-07T04:08:14;2.30;99.90
14119;DHT22;7138;49.246;9.100;2022-12-07T04:10:40;2.30;99.90
14119;DHT22;7138;49.246;9.100;2022-12-07T04:13:06;2.30;99.90
14119;DHT22;7138;49.246;9.100;2022-12-07T04:15:32;2.30;99.90
14119;DHT22;7138;49.246;9.100;2022-12-07T04:17:58;2.20;99.90
14119;DHT22;7138;49.246;9.100;2022-12-07T04:20:25;2.20;99.90
14119;DHT22;7138;49.246;9.100;2022-12-07T04:22:51;2.20;99.90
14119;DHT22;7138;49.246;9.100;2022-12-07T04:25:17;2.20;99.90
14119;DHT22;7138;49.246;9.100;2022-12-07T04:27:43;2.30;99.90
14119;DHT22;7138;49.246;9.100;2022-12-07T04:30:09;2.30;99.90
14119;DHT22;7138;49.246;9.100;2022-12-07T04:32:36;2.30;99.90
14119;DHT22;7138;49.246;9.100;2022-12-07T04:35:03;2.30;99.90
14119;DHT22;7138;49.246;9.100;2022-12-07T04:37:31;2.30;99.90
14119;DHT22;7138;49.246;9.100;2022-12-07T04:39:57;2.30;99.90
14119;DHT22;7138;49.246;9.100;2022-12-07T04:42:23;2.30;99.90
14119;DHT22;7138;49.246;9.100;2022-12-07T04:44:48;2.20;99.90
14119;DHT22;7138;49.246;9.100;2022-12-07T04:47:14;2.30;99.90
14119;DHT22;7138;49.246;9.100;2022-12-07T04:49:40;2.30;99.90
14119;DHT22;7138;49.246;9.100;2022-12-07T04:52:06;2.30;99.90
14119;DHT22;7138;49.246;9.100;2022-12-07T04:54:33;2.30;99.90
14119;DHT22;7138;49.246;9.100;2022-12-07T04:56:59;2.30;99.90
14119;DHT22;7138;49.246;9.100;2022-12-07T04:59:25;2.30;99.90
14119;DHT22;7138;49.246;9.100;2022-12-07T05:01:51;2.30;99.90
14119;DHT22;7138;49.246;9.100;2022-12-07T05:04:17;2.30;99.90
14119;DHT22;7138;49.246;9.100;2022-12-07T05:06:43;2.30;99.90
14119;DHT22;7138;49.246;9.100;2022-12-07T05:09:09;2.30;99.90
14119;DHT22;7138;49.246;9.100;2022-12-07T05:11:36;2.30;99.90
14119;DHT22;7138;49.246;9.100;2022-12-07T05:14:08;2.30;99.90
14119;DHT22;7138;49.246;9.100;2022-12-07T05:16:36;2.30;99.90
14119;DHT22;7138;49.246;9.100;2022-12-07T05:19:03;2.30;99.90
14119;DHT22;7138;49.246;9.100;2022-12-07T05:21:29;2.20;99.90
14119;DHT22;7138;49.246;9.100;2022-12-07T05:23:55;2.20;99.90
14119;DHT22;7138;49.246;9.100;2022-12-07T05:26:21;2.20;99.90
14119;DHT22;7138;49.246;9.100;2022-12-07T05:28:51;2.30;99.90
14119;DHT22;7138;49.246;9.100;2022-12-07T05:31:17;2.20;99.90
14119;DHT22;7138;49.246;9.100;2022-12-07T05:33:43;2.20;99.90
14119;DHT22;7138;49.246;9.100;2022-12-07T05:36:09;2.20;99.90
14119;DHT22;7138;49.246;9.100;2022-12-07T05:38:34;2.20;99.90
14119;DHT22;7138;49.246;9.100;2022-12-07T05:41:01;2.20;99.90
14119;DHT22;7138;49.246;9.100;2022-12-07T05:43:28;2.20;99.90
14119;DHT22;7138;49.246;9.100;2022-12-07T05:45:55;2.20;99.90
14119;DHT22;7138;49.246;9.100;2022-12-07T05:48:21;2.20;99.90
14119;DHT22;7138;49.246;9.100;2022-12-07T05:50:47;2.20;99.90
14119;DHT22;7138;49.246;9.100;2022-12-07T05:53:14;2.20;99.90
14119;DHT22;7138;49.246;9.100;2022-12-07T05:55:40;2.20;99.90
14119;DHT22;7138;49.246;9.100;2022-12-07T05:58:05;2.30;99.90
14119;DHT22;7138;49.246;9.100;2022-12-07T06:00:50;2.30;99.90
14119;DHT22;7138;49.246;9.100;2022-12-07T06:03:17;2.20;99.90
14119;DHT22;7138;49.246;9.100;2022-12-07T06:05:43;2.20;99.90
14119;DHT22;7138;49.246;9.100;2022-12-07T06:08:09;2.30;99.90
14119;DHT22;7138;49.246;9.100;2022-12-07T06:10:35;2.20;99.90
14119;DHT22;7138;49.246;9.100;2022-12-07T06:13:00;2.20;99.90
14119;DHT22;7138;49.246;9.100;2022-12-07T06:15:26;2.20;99.90
14119;DHT22;7138;49.246;9.100;2022-12-07T06:17:52;2.20;99.90
14119;DHT22;7138;49.246;9.100;2022-12-07T06:20:19;2.20;99.90
14119;DHT22;7138;49.246;9.100;2022-12-07T06:22:45;2.20;99.90
14119;DHT22;7138;49.246;9.100;2022-12-07T06:25:11;2.20;99.90
14119;DHT22;7138;49.246;9.100;2022-12-07T06:27:37;2.20;99.90
14119;DHT22;7138;49.246;9.100;2022-12-07T06:30:04;2.20;99.90
14119;DHT22;7138;49.246;9.100;2022-12-07T06:32:32;2.20;99.90
14119;DHT22;7138;49.246;9.100;2022-12-07T06:34:58;2.20;99.90
14119;DHT22;7138;49.246;9.100;2022-12-07T06:37:26;2.20;99.90
14119;DHT22;7138;49.246;9.100;2022-12-07T06:39:52;2.20;99.90
14119;DHT22;7138;49.246;9.100;2022-12-07T06:42:17;2.20;99.90
14119;DHT22;7138;49.246;9.100;2022-12-07T06:44:43;2.20;99.90
14119;DHT22;7138;49.246;9.100;2022-12-07T06:47:09;2.20;99.90
14119;DHT22;7138;49.246;9.100;2022-12-07T06:49:35;2.20;99.90
14119;DHT22;7138;49.246;9.100;2022-12-07T06:52:01;2.20;99.90
14119;DHT22;7138;49.246;9.100;2022-12-07T06:54:28;2.20;99.90
14119;DHT22;7138;49.246;9.100;2022-12-07T06:56:55;2.20;99.90
14119;DHT22;7138;49.246;9.100;2022-12-07T06:59:21;2.20;99.90
14119;DHT22;7138;49.246;9.100;2022-12-07T07:01:47;2.10;99.90
14119;DHT22;7138;49.246;9.100;2022-12-07T07:04:13;2.20;99.90
14119;DHT22;7138;49.246;9.100;2022-12-07T07:06:39;2.10;99.90
14119;DHT22;7138;49.246;9.100;2022-12-07T07:09:04;2.10;99.90
14119;DHT22;7138;49.246;9.100;2022-12-07T07:11:32;2.10;99.90
14119;DHT22;7138;49.246;9.100;2022-12-07T07:13:58;2.10;99.90
14119;DHT22;7138;49.246;9.100;2022-12-07T07:16:27;2.10;99.90
14119;DHT22;7138;49.246;9.100;2022-12-07T07:18:54;2.10;99.90
14119;DHT22;7138;49.246;9.100;2022-12-07T07:21:20;2.20;99.90
14119;DHT22;7138;49.246;9.100;2022-12-07T07:23:45;2.10;99.90
14119;DHT22;7138;49.246;9.100;2022-12-07T07:26:11;2.20;99.90
14119;DHT22;7138;49.246;9.100;2022-12-07T07:28:39;2.20;99.90
14119;DHT22;7138;49.246;9.100;2022-12-07T07:31:04;2.20;99.90
14119;DHT22;7138;49.246;9.100;2022-12-07T07:33:30;2.20;99.90
14119;DHT22;7138;49.246;9.100;2022-12-07T07:35:56;2.20;99.90
14119;DHT22;7138;49.246;9.100;2022-12-07T07:38:22;2.10;99.90
14119;DHT22;7138;49.246;9.100;2022-12-07T07:40:48;2.00;99.90
14119;DHT22;7138;49.246;9.100;2022-12-07T07:43:14;2.00;99.90
14119;DHT22;7138;49.246;9.100;2022-12-07T07:45:41;2.00;99.90
14119;DHT22;7138;49.246;9.100;2022-12-07T07:48:07;2.00;99.90
14119;DHT22;7138;49.246;9.100;2022-12-07T07:50:33;2.00;99.90
14119;DHT22;7138;49.246;9.100;2022-12-07T07:52:59;2.00;99.90
14119;DHT22;7138;49.246;9.100;2022-12-07T07:55:25;2.10;99.90
14119;DHT22;7138;49.246;9.100;2022-12-07T07:57:51;2.10;99.90
14119;DHT22;7138;49.246;9.100;2022-12-07T08:00:17;2.00;99.90
14119;DHT22;7138;49.246;9.100;2022-12-07T08:02:45;2.10;99.90
14119;DHT22;7138;49.246;9.100;2022-12-07T08:05:12;2.10;99.90
14119;DHT22;7138;49.246;9.100;2022-12-07T08:07:39;2.10;99.90
14119;DHT22;7138;49.246;9.100;2022-12-07T08:10:06;2.20;99.90
14119;DHT22;7138;49.246;9.100;2022-12-07T08:12:36;2.20;99.90
14119;DHT22;7138;49.246;9.100;2022-12-07T08:15:03;2.20;99.90
14119;DHT22;7138;49.246;9.100;2022-12-07T08:17:29;2.20;99.90
14119;DHT22;7138;49.246;9.100;2022-12-07T08:19:57;2.30;99.90
14119;DHT22;7138;49.246;9.100;2022-12-07T08:22:22;2.30;99.90
14119;DHT22;7138;49.246;9.100;2022-12-07T08:24:48;2.30;99.90
14119;DHT22;7138;49.246;9.100;2022-12-07T08:27:14;2.40;99.90
14119;DHT22;7138;49.246;9.100;2022-12-07T08:29:40;2.40;99.90
14119;DHT22;7138;49.246;9.100;2022-12-07T08:32:06;2.50;99.90
14119;DHT22;7138;49.246;9.100;2022-12-07T08:34:32;2.50;99.90
14119;DHT22;7138;49.246;9.100;2022-12-07T08:36:59;2.50;99.90
14119;DHT22;7138;49.246;9.100;2022-12-07T08:39:25;2.50;99.90
14119;DHT22;7138;49.246;9.100;2022-12-07T08:41:51;2.60;99.90
14119;DHT22;7138;49.246;9.100;2022-12-07T08:44:16;2.60;99.90
14119;DHT22;7138;49.246;9.100;2022-12-07T08:46:46;2.70;99.90
14119;DHT22;7138;49.246;9.100;2022-12-07T08:49:19;2.70;99.90
14119;DHT22;7138;49.246;9.100;2022-12-07T08:51:48;2.70;99.90
14119;DHT22;7138;49.246;9.100;2022-12-07T08:54:17;2.80;99.90
14119;DHT22;7138;49.246;9.100;2022-12-07T08:56:44;2.80;99.90
14119;DHT22;7138;49.246;9.100;2022-12-07T08:59:14;2.80;99.90
14119;DHT22;7138;49.246;9.100;2022-12-07T09:01:43;2.90;99.90
14119;DHT22;7138;49.246;9.100;2022-12-07T09:04:09;2.90;99.90
14119;DHT22;7138;49.246;9.100;2022-12-07T09:06:35;3.10;99.90
14119;DHT22;7138;49.246;9.100;2022-12-07T09:09:02;3.30;99.90
14119;DHT22;7138;49.246;9.100;2022-12-07T09:11:29;3.30;99.90
14119;DHT22;7138;49.246;9.100;2022-12-07T09:13:55;3.40;99.90
14119;DHT22;7138;49.246;9.100;2022-12-07T09:16:22;3.40;99.90
14119;DHT22;7138;49.246;9.100;2022-12-07T09:18:48;3.40;99.90
14119;DHT22;7138;49.246;9.100;2022-12-07T09:21:14;3.50;99.90
14119;DHT22;7138;49.246;9.100;2022-12-07T09:23:41;3.50;99.90
14119;DHT22;7138;49.246;9.100;2022-12-07T09:26:08;3.70;99.90
14119;DHT22;7138;49.246;9.100;2022-12-07T09:28:35;4.00;99.90
14119;DHT22;7138;49.246;9.100;2022-12-07T09:31:02;4.20;99.90
14119;DHT22;7138;49.246;9.100;2022-12-07T09:33:28;4.20;99.90
14119;DHT22;7138;49.246;9.100;2022-12-07T09:35:54;4.30;99.90
14119;DHT22;7138;49.246;9.100;2022-12-07T09:38:20;4.20;99.90
14119;DHT22;7138;49.246;9.100;2022-12-07T09:40:47;4.00;99.90
14119;DHT22;7138;49.246;9.100;2022-12-07T09:43:15;3.90;99.90
14119;DHT22;7138;49.246;9.100;2022-12-07T09:45:44;3.90;99.90
14119;DHT22;7138;49.246;9.100;2022-12-07T09:48:17;3.90;99.90
14119;DHT22;7138;49.246;9.100;2022-12-07T09:50:46;3.90;99.90
14119;DHT22;7138;49.246;9.100;2022-12-07T09:53:16;3.90;99.90
14119;DHT22;7138;49.246;9.100;2022-12-07T09:55:46;4.00;99.90
14119;DHT22;7138;49.246;9.100;2022-12-07T09:58:19;3.90;99.90
14119;DHT22;7138;49.246;9.100;2022-12-07T10:00:49;3.90;99.90
14119;DHT22;7138;49.246;9.100;2022-12-07T10:03:16;3.90;99.90
14119;DHT22;7138;49.246;9.100;2022-12-07T10:05:45;3.90;99.90
14119;DHT22;7138;49.246;9.100;2022-12-07T10:08:14;3.80;99.90
14119;DHT22;7138;49.246;9.100;2022-12-07T10:10:43;3.70;99.90
14119;DHT22;7138;49.246;9.100;2022-12-07T10:13:11;3.60;99.90
14119;DHT22;7138;49.246;9.100;2022-12-07T10:15:42;3.70;99.90
14119;DHT22;7138;49.246;9.100;2022-12-07T10:18:21;3.60;99.90
14119;DHT22;7138;49.246;9.100;2022-12-07T10:21:01;3.70;99.90
14119;DHT22;7138;49.246;9.100;2022-12-07T10:23:36;3.80;99.90
14119;DHT22;7138;49.246;9.100;2022-12-07T10:26:25;3.80;99.90
14119;DHT22;7138;49.246;9.100;2022-12-07T10:28:54;3.70;99.90
14119;DHT22;7138;49.246;9.100;2022-12-07T10:31:22;3.80;99.90
14119;DHT22;7138;49.246;9.100;2022-12-07T10:33:52;3.80;99.90
14119;DHT22;7138;49.246;9.100;2022-12-07T10:36:23;3.80;99.90
14119;DHT22;7138;49.246;9.100;2022-12-07T10:38:52;3.80;99.90
14119;DHT22;7138;49.246;9.100;2022-12-07T10:41:23;3.80;99.90
14119;DHT22;7138;49.246;9.100;2022-12-07T10:43:52;3.90;99.90
14119;DHT22;7138;49.246;9.100;2022-12-07T10:49:46;3.90;99.90
14119;DHT22;7138;49.246;9.100;2022-12-07T10:53:00;3.90;99.90
14119;DHT22;7138;49.246;9.100;2022-12-07T10:55:49;3.90;99.90
14119;DHT22;7138;49.246;9.100;2022-12-07T10:59:00;3.90;99.90
14119;DHT22;7138;49.246;9.100;2022-12-07T11:01:43;4.10;99.90
14119;DHT22;7138;49.246;9.100;2022-12-07T11:04:24;4.20;99.90
14119;DHT22;7138;49.246;9.100;2022-12-07T11:07:06;4.30;99.90
14119;DHT22;7138;49.246;9.100;2022-12-07T11:09:54;4.20;99.90
14119;DHT22;7138;49.246;9.100;2022-12-07T11:12:36;4.20;99.90
14119;DHT22;7138;49.246;9.100;2022-12-07T11:15:22;4.20;99.90
14119;DHT22;7138;49.246;9.100;2022-12-07T11:17:55;4.10;99.90
14119;DHT22;7138;49.246;9.100;2022-12-07T11:20:41;4.10;99.90
14119;DHT22;7138;49.246;9.100;2022-12-07T11:23:24;4.10;99.90
14119;DHT22;7138;49.246;9.100;2022-12-07T11:26:16;4.00;99.90
14119;DHT22;7138;49.246;9.100;2022-12-07T11:29:17;4.00;99.90
14119;DHT22;7138;49.246;9.100;2022-12-07T11:32:04;4.00;99.90
14119;DHT22;7138;49.246;9.100;2022-12-07T11:34:44;3.90;99.90
14119;DHT22;7138;49.246;9.100;2022-12-07T11:37:25;3.90;99.90
14119;DHT22;7138;49.246;9.100;2022-12-07T11:40:00;4.00;99.90
14119;DHT22;7138;49.246;9.100;2022-12-07T11:42:31;4.10;99.90
14119;DHT22;7138;49.246;9.100;2022-12-07T11:45:10;4.20;99.90
14119;DHT22;7138;49.246;9.100;2022-12-07T11:47:46;4.30;99.90
14119;DHT22;7138;49.246;9.100;2022-12-07T11:50:31;4.40;99.90
14119;DHT22;7138;49.246;9.100;2022-12-07T11:53:05;4.50;99.90
14119;DHT22;7138;49.246;9.100;2022-12-07T11:55:45;4.60;99.90
14119;DHT22;7138;49.246;9.100;2022-12-07T11:58:33;4.50;99.90
14119;DHT22;7138;49.246;9.100;2022-12-07T12:01:14;4.40;99.90
14119;DHT22;7138;49.246;9.100;2022-12-07T12:03:50;4.50;99.90
14119;DHT22;7138;49.246;9.100;2022-12-07T12:06:20;4.50;99.90
14119;DHT22;7138;49.246;9.100;2022-12-07T12:08:51;4.60;99.90
14119;DHT22;7138;49.246;9.100;2022-12-07T12:11:35;4.50;99.90
14119;DHT22;7138;49.246;9.100;2022-12-07T12:14:27;4.50;99.90
14119;DHT22;7138;49.246;9.100;2022-12-07T12:17:34;4.60;99.90
14119;DHT22;7138;49.246;9.100;2022-12-07T12:20:20;4.70;99.90
14119;DHT22;7138;49.246;9.100;2022-12-07T12:22:53;4.70;99.90
14119;DHT22;7138;49.246;9.100;2022-12-07T12:25:27;4.70;99.90
14119;DHT22;7138;49.246;9.100;2022-12-07T12:27:58;4.60;99.90
14119;DHT22;7138;49.246;9.100;2022-12-07T12:30:30;4.70;99.90
14119;DHT22;7138;49.246;9.100;2022-12-07T12:33:13;4.50;99.90
14119;DHT22;7138;49.246;9.100;2022-12-07T12:35:42;4.50;99.90
14119;DHT22;7138;49.246;9.100;2022-12-07T12:38:29;4.70;99.90
14119;DHT22;7138;49.246;9.100;2022-12-07T12:40:59;4.80;99.90
14119;DHT22;7138;49.246;9.100;2022-12-07T12:43:45;4.90;99.90
14119;DHT22;7138;49.246;9.100;2022-12-07T12:46:45;4.90;99.90
14119;DHT22;7138;49.246;9.100;2022-12-07T12:49:35;4.80;99.90
14119;DHT22;7138;49.246;9.100;2022-12-07T12:56:06;4.60;99.90
14119;DHT22;7138;49.246;9.100;2022-12-07T12:58:47;4.40;99.90
14119;DHT22;7138;49.246;9.100;2022-12-07T13:01:43;4.30;99.90
14119;DHT22;7138;49.246;9.100;2022-12-07T13:04:34;4.20;99.90
14119;DHT22;7138;49.246;9.100;2022-12-07T13:07:12;4.20;99.90
14119;DHT22;7138;49.246;9.100;2022-12-07T13:09:58;4.10;99.90
14119;DHT22;7138;49.246;9.100;2022-12-07T13:12:25;4.10;99.90
14119;DHT22;7138;49.246;9.100;2022-12-07T13:14:57;4.10;99.90
14119;DHT22;7138;49.246;9.100;2022-12-07T13:18:00;4.10;99.90
14119;DHT22;7138;49.246;9.100;2022-12-07T13:20:45;4.10;99.90
14119;DHT22;7138;49.246;9.100;2022-12-07T13:23:22;4.10;99.90
14119;DHT22;7138;49.246;9.100;2022-12-07T13:26:12;4.20;99.90
14119;DHT22;7138;49.246;9.100;2022-12-07T13:28:42;4.20;99.90
14119;DHT22;7138;49.246;9.100;2022-12-07T13:31:31;4.20;99.90
14119;DHT22;7138;49.246;9.100;2022-12-07T13:33:59;4.10;99.90
14119;DHT22;7138;49.246;9.100;2022-12-07T13:36:27;4.10;99.90
14119;DHT22;7138;49.246;9.100;2022-12-07T13:39:14;4.00;99.90
14119;DHT22;7138;49.246;9.100;2022-12-07T13:41:43;4.10;99.90
14119;DHT22;7138;49.246;9.100;2022-12-07T13:44:12;4.00;99.90
14119;DHT22;7138;49.246;9.100;2022-12-07T13:46:49;4.00;99.90
14119;DHT22;7138;49.246;9.100;2022-12-07T13:49:23;4.00;99.90
14119;DHT22;7138;49.246;9.100;2022-12-07T13:51:51;4.10;99.90
14119;DHT22;7138;49.246;9.100;2022-12-07T13:54:18;4.00;99.90
14119;DHT22;7138;49.246;9.100;2022-12-07T13:56:48;4.00;99.90
14119;DHT22;7138;49.246;9.100;2022-12-07T13:59:18;4.00;99.90
14119;DHT22;7138;49.246;9.100;2022-12-07T14:01:49;3.90;99.90
14119;DHT22;7138;49.246;9.100;2022-12-07T14:04:17;3.90;99.90
14119;DHT22;7138;49.246;9.100;2022-12-07T14:06:48;3.90;99.90
14119;DHT22;7138;49.246;9.100;2022-12-07T14:09:18;3.90;99.90
14119;DHT22;7138;49.246;9.100;2022-12-07T14:11:48;3.90;99.90
14119;DHT22;7138;49.246;9.100;2022-12-07T14:14:17;3.90;99.90
14119;DHT22;7138;49.246;9.100;2022-12-07T14:16:57;3.90;99.90
14119;DHT22;7138;49.246;9.100;2022-12-07T14:19:48;3.90;99.90
14119;DHT22;7138;49.246;9.100;2022-12-07T14:22:26;3.90;99.90
14119;DHT22;7138;49.246;9.100;2022-12-07T14:25:19;3.90;99.90
14119;DHT22;7138;49.246;9.100;2022-12-07T14:27:51;3.80;99.90
14119;DHT22;7138;49.246;9.100;2022-12-07T14:30:22;3.80;99.90
14119;DHT22;7138;49.246;9.100;2022-12-07T14:32:54;3.80;99.90
14119;DHT22;7138;49.246;9.100;2022-12-07T14:35:23;3.80;99.90
14119;DHT22;7138;49.246;9.100;2022-12-07T14:37:49;3.80;99.90
14119;DHT22;7138;49.246;9.100;2022-12-07T14:40:17;3.80;99.90
14119;DHT22;7138;49.246;9.100;2022-12-07T14:42:46;3.80;99.90
14119;DHT22;7138;49.246;9.100;2022-12-07T14:45:16;3.70;99.90
14119;DHT22;7138;49.246;9.100;2022-12-07T14:47:44;3.70;99.90
14119;DHT22;7138;49.246;9.100;2022-12-07T14:50:14;3.70;99.90
14119;DHT22;7138;49.246;9.100;2022-12-07T14:52:44;3.70;99.90
14119;DHT22;7138;49.246;9.100;2022-12-07T14:55:16;3.70;99.90
14119;DHT22;7138;49.246;9.100;2022-12-07T14:57:46;3.70;99.90
14119;DHT22;7138;49.246;9.100;2022-12-07T15:00:16;3.70;99.90
14119;DHT22;7138;49.246;9.100;2022-12-07T15:02:44;3.60;99.90
14119;DHT22;7138;49.246;9.100;2022-12-07T15:05:12;3.60;99.90
14119;DHT22;7138;49.246;9.100;2022-12-07T15:07:39;3.60;99.90
14119;DHT22;7138;49.246;9.100;2022-12-07T15:10:06;3.60;99.90
14119;DHT22;7138;49.246;9.100;2022-12-07T15:12:39;3.60;99.90
14119;DHT22;7138;49.246;9.100;2022-12-07T15:15:06;3.60;99.90
14119;DHT22;7138;49.246;9.100;2022-12-07T15:17:32;3.50;99.90
14119;DHT22;7138;49.246;9.100;2022-12-07T15:19:58;3.50;99.90
14119;DHT22;7138;49.246;9.100;2022-12-07T15:22:26;3.50;99.90
14119;DHT22;7138;49.246;9.100;2022-12-07T15:24:52;3.50;99.90
14119;DHT22;7138;49.246;9.100;2022-12-07T15:27:18;3.50;99.90
14119;DHT22;7138;49.246;9.100;2022-12-07T15:29:44;3.40;99.90
14119;DHT22;7138;49.246;9.100;2022-12-07T15:32:10;3.40;99.90
14119;DHT22;7138;49.246;9.100;2022-12-07T15:34:36;3.30;99.90
14119;DHT22;7138;49.246;9.100;2022-12-07T15:37:01;3.30;99.90
14119;DHT22;7138;49.246;9.100;2022-12-07T15:39:29;3.30;99.90
14119;DHT22;7138;49.246;9.100;2022-12-07T15:41:54;3.30;99.90
14119;DHT22;7138;49.246;9.100;2022-12-07T15:44:20;3.30;99.90
14119;DHT22;7138;49.246;9.100;2022-12-07T15:47:05;3.20;99.90
14119;DHT22;7138;49.246;9.100;2022-12-07T15:49:31;3.20;99.90
14119;DHT22;7138;49.246;9.100;2022-12-07T15:51:57;3.20;99.90
14119;DHT22;7138;49.246;9.100;2022-12-07T15:54:25;3.10;99.90
14119;DHT22;7138;49.246;9.100;2022-12-07T15:56:54;3.10;99.90
14119;DHT22;7138;49.246;9.100;2022-12-07T15:59:20;3.20;99.90
14119;DHT22;7138;49.246;9.100;2022-12-07T16:01:46;3.10;99.90
14119;DHT22;7138;49.246;9.100;2022-12-07T16:04:12;3.10;99.90
14119;DHT22;7138;49.246;9.100;2022-12-07T16:06:39;3.10;99.90
14119;DHT22;7138;49.246;9.100;2022-12-07T16:09:05;3.20;99.90
14119;DHT22;7138;49.246;9.100;2022-12-07T16:11:32;3.20;99.90
14119;DHT22;7138;49.246;9.100;2022-12-07T16:13:59;3.20;99.90
14119;DHT22;7138;49.246;9.100;2022-12-07T16:16:25;3.20;99.90
14119;DHT22;7138;49.246;9.100;2022-12-07T16:18:52;3.20;99.90
14119;DHT22;7138;49.246;9.100;2022-12-07T16:21:19;3.10;99.90
14119;DHT22;7138;49.246;9.100;2022-12-07T16:23:46;3.10;99.90
14119;DHT22;7138;49.246;9.100;2022-12-07T16:26:13;3.20;99.90
14119;DHT22;7138;49.246;9.100;2022-12-07T16:28:40;3.10;99.90
14119;DHT22;7138;49.246;9.100;2022-12-07T16:31:12;3.10;99.90
14119;DHT22;7138;49.246;9.100;2022-12-07T16:33:40;3.10;99.90
14119;DHT22;7138;49.246;9.100;2022-12-07T16:36:08;3.10;99.90